Time;durP1;ratioP1;P1;durP2;ratioP2;P2;SDS_P1;SDS_P2;PMS_P1;PMS_P2;Temp;Humidity;BMP_temperature;BMP_pressure;BME280_temperature;BME280_humidity;BME280_pressure;Samples;Min_cycle;Max_cycle;Signal;HPM_P1;HPM_P2
2021/09/18 00:01:01;;;;;;;0.32;0.28;;;16.10;79.50;;;;;;4910042;29;20330;-71
2021/09/18 00:03:31;;;;;;;1.30;0.40;;;16.10;78.80;;;;;;4913960;29;20032;-71
2021/09/18 00:05:57;;;;;;;0.80;0.30;;;16.00;79.00;;;;;;4912953;29;20048;-71
2021/09/18 00:08:22;;;;;;;0.82;0.30;;;16.00;78.70;;;;;;4912274;29;20035;-71
2021/09/18 00:10:48;;;;;;;2.35;0.40;;;16.00;78.20;;;;;;4909669;29;20043;-71
2021/09/18 00:13:14;;;;;;;0.20;0.20;;;16.00;78.40;;;;;;4911532;29;20032;-70
2021/09/18 00:15:40;;;;;;;1.83;0.50;;;16.10;79.10;;;;;;4912731;29;20034;-71
2021/09/18 00:18:06;;;;;;;0.65;0.50;;;16.00;79.20;;;;;;4910988;29;20091;-71
2021/09/18 00:20:32;;;;;;;1.13;0.30;;;16.00;79.30;;;;;;4919679;29;20174;-71
2021/09/18 00:22:58;;;;;;;0.80;0.40;;;16.00;79.90;;;;;;4912747;29;20110;-71
2021/09/18 00:25:24;;;;;;;0.30;0.30;;;16.00;80.30;;;;;;4911761;29;20036;-70
2021/09/18 00:27:50;;;;;;;0.55;0.30;;;16.00;79.60;;;;;;4911582;29;20150;-71
2021/09/18 00:30:16;;;;;;;0.40;0.40;;;16.00;78.60;;;;;;4909541;29;20032;-71
2021/09/18 00:32:42;;;;;;;0.88;0.40;;;16.10;78.70;;;;;;4913011;29;20039;-70
2021/09/18 00:35:08;;;;;;;2.25;0.38;;;16.00;78.80;;;;;;4911964;29;20558;-71
2021/09/18 00:37:34;;;;;;;0.43;0.30;;;16.00;78.70;;;;;;4909647;29;20524;-71
2021/09/18 00:40:00;;;;;;;0.63;0.43;;;16.00;79.00;;;;;;4913764;29;20040;-71
2021/09/18 00:42:26;;;;;;;0.55;0.50;;;16.00;79.80;;;;;;4913127;29;20039;-71
2021/09/18 00:44:52;;;;;;;0.65;0.55;;;16.00;79.00;;;;;;4911717;29;20032;-70
2021/09/18 00:47:18;;;;;;;1.30;0.35;;;16.00;79.40;;;;;;4909886;29;20040;-71
2021/09/18 00:49:44;;;;;;;3.03;0.60;;;15.90;79.40;;;;;;4911633;29;20146;-70
2021/09/18 00:52:12;;;;;;;1.27;0.50;;;15.90;79.50;;;;;;4911205;29;20024;-71
2021/09/18 00:54:38;;;;;;;0.50;0.45;;;15.90;79.40;;;;;;4909750;29;20040;-70
2021/09/18 00:57:03;;;;;;;0.57;0.45;;;15.90;79.50;;;;;;4910837;29;20377;-71
2021/09/18 00:59:30;;;;;;;2.00;0.70;;;15.90;79.40;;;;;;4911253;29;20027;-70
2021/09/18 01:01:55;;;;;;;0.57;0.50;;;15.90;79.70;;;;;;4911141;29;20048;-71
2021/09/18 01:04:22;;;;;;;1.35;0.60;;;15.90;79.80;;;;;;4916001;29;20043;-71
2021/09/18 01:06:48;;;;;;;0.70;0.43;;;15.80;80.00;;;;;;4915339;29;20042;-71
2021/09/18 01:09:14;;;;;;;0.65;0.65;;;15.90;80.40;;;;;;4912823;29;20036;-70
2021/09/18 01:11:40;;;;;;;0.80;0.52;;;15.80;80.00;;;;;;4915983;29;20051;-71
2021/09/18 01:14:08;;;;;;;2.35;0.60;;;15.80;80.20;;;;;;4913957;29;20039;-70
2021/09/18 01:16:33;;;;;;;6.90;1.15;;;15.70;80.50;;;;;;4915878;29;20111;-70
2021/09/18 01:18:59;;;;;;;0.80;0.50;;;15.70;80.40;;;;;;4913083;29;20040;-70
2021/09/18 01:21:25;;;;;;;2.30;0.52;;;15.70;80.70;;;;;;4915716;29;20043;-71
2021/09/18 01:23:50;;;;;;;0.50;0.47;;;15.70;81.10;;;;;;4914814;29;20035;-70
2021/09/18 01:26:16;;;;;;;0.47;0.47;;;15.70;81.40;;;;;;4914462;29;20483;-70
2021/09/18 01:28:42;;;;;;;0.75;0.50;;;15.70;81.90;;;;;;4914617;29;20535;-71
2021/09/18 01:31:08;;;;;;;0.40;0.40;;;15.70;82.00;;;;;;4915170;29;20044;-71
2021/09/18 01:33:35;;;;;;;0.80;0.63;;;15.70;81.80;;;;;;4913893;29;20051;-71
2021/09/18 01:36:01;;;;;;;0.32;0.32;;;15.70;81.60;;;;;;4914765;29;20039;-70
2021/09/18 01:38:26;;;;;;;0.88;0.40;;;15.70;81.20;;;;;;4911347;29;20530;-70
2021/09/18 01:40:52;;;;;;;0.93;0.60;;;15.80;81.10;;;;;;4912603;29;20046;-71
2021/09/18 01:43:18;;;;;;;1.35;0.68;;;15.70;81.20;;;;;;4913417;29;20040;-71
2021/09/18 01:45:44;;;;;;;0.93;0.45;;;15.80;81.20;;;;;;4913684;29;20064;-70
2021/09/18 01:48:12;;;;;;;1.10;0.60;;;15.80;81.30;;;;;;4929554;29;20048;-71
2021/09/18 01:50:46;;;;;;;3.30;0.70;;;15.70;81.10;;;;;;4914412;29;20142;-71
2021/09/18 01:53:13;;;;;;;3.25;0.60;;;15.70;81.60;;;;;;4913243;29;20032;-70
2021/09/18 01:55:39;;;;;;;0.43;0.40;;;15.70;81.90;;;;;;4915114;29;20114;-71
2021/09/18 01:58:05;;;;;;;1.40;0.50;;;15.70;82.60;;;;;;4914712;29;20485;-70
2021/09/18 02:00:32;;;;;;;1.55;0.40;;;15.70;82.90;;;;;;4914076;29;20548;-70
2021/09/18 02:02:59;;;;;;;1.10;0.60;;;15.70;82.60;;;;;;4913967;29;20106;-70
2021/09/18 02:05:27;;;;;;;1.17;0.50;;;15.70;82.00;;;;;;4913067;29;20036;-70
2021/09/18 02:07:54;;;;;;;0.63;0.60;;;15.70;82.00;;;;;;4915509;29;20829;-71
2021/09/18 02:10:22;;;;;;;0.82;0.65;;;15.70;82.00;;;;;;4917085;29;20055;-71
2021/09/18 02:12:48;;;;;;;0.60;0.60;;;15.70;82.10;;;;;;4930122;28;20039;-71
2021/09/18 02:15:17;;;;;;;0.93;0.60;;;15.70;82.00;;;;;;4913325;29;20032;-71
2021/09/18 02:17:42;;;;;;;1.48;0.90;;;15.70;82.20;;;;;;4913733;29;20031;-71
2021/09/18 02:20:12;;;;;;;1.33;0.50;;;15.80;82.10;;;;;;4911814;29;20422;-71
2021/09/18 02:22:38;;;;;;;0.98;0.65;;;15.80;82.00;;;;;;4918757;29;20051;-71
2021/09/18 02:25:05;;;;;;;2.90;0.80;;;15.80;82.00;;;;;;4912402;29;20035;-71
2021/09/18 02:27:31;;;;;;;0.75;0.75;;;15.90;81.60;;;;;;4914246;29;20036;-71
2021/09/18 02:29:57;;;;;;;2.20;1.02;;;15.80;81.50;;;;;;4912581;29;20436;-71
2021/09/18 02:32:22;;;;;;;1.42;1.13;;;15.90;81.60;;;;;;4914043;29;20169;-70
2021/09/18 02:34:48;;;;;;;3.33;1.02;;;15.90;81.50;;;;;;4911157;29;20115;-71
2021/09/18 02:37:14;;;;;;;1.77;0.80;;;15.90;81.50;;;;;;4911354;29;20641;-71
2021/09/18 02:39:40;;;;;;;1.30;0.90;;;15.90;81.60;;;;;;4911260;29;20036;-70
2021/09/18 02:42:06;;;;;;;1.10;0.93;;;15.90;81.50;;;;;;4909306;29;20135;-71
2021/09/18 02:44:31;;;;;;;1.08;0.95;;;15.90;81.90;;;;;;4913692;29;20775;-71
2021/09/18 02:46:57;;;;;;;0.65;0.60;;;15.90;81.90;;;;;;4913743;29;20055;-71
2021/09/18 02:49:23;;;;;;;1.55;1.00;;;15.90;81.60;;;;;;4914104;29;20028;-71
2021/09/18 02:51:49;;;;;;;1.55;0.93;;;15.90;81.80;;;;;;4913189;29;20031;-71
2021/09/18 02:54:14;;;;;;;1.20;1.00;;;15.90;81.60;;;;;;4913256;29;20068;-70
2021/09/18 02:56:42;;;;;;;0.82;0.80;;;15.90;81.70;;;;;;4916598;29;20067;-71
2021/09/18 02:59:08;;;;;;;1.48;0.85;;;15.90;81.70;;;;;;4912632;29;20488;-70
2021/09/18 03:01:34;;;;;;;1.35;0.82;;;15.90;81.90;;;;;;4911433;29;20087;-71
2021/09/18 03:04:00;;;;;;;1.83;1.10;;;16.00;81.40;;;;;;4916096;29;20044;-71
2021/09/18 03:06:26;;;;;;;1.10;0.98;;;16.00;81.20;;;;;;4909269;29;20032;-71
2021/09/18 03:08:51;;;;;;;2.10;0.90;;;15.90;81.30;;;;;;4914971;29;20028;-71
2021/09/18 03:11:17;;;;;;;1.58;0.98;;;15.90;81.50;;;;;;4912279;29;20043;-71
2021/09/18 03:13:43;;;;;;;1.42;0.90;;;15.90;81.50;;;;;;4913995;29;20070;-71
2021/09/18 03:16:09;;;;;;;1.45;0.88;;;16.00;81.60;;;;;;4914405;29;20059;-71
2021/09/18 03:18:35;;;;;;;1.75;1.02;;;16.00;81.60;;;;;;4912662;29;20869;-70
2021/09/18 03:21:00;;;;;;;1.13;1.00;;;15.90;81.60;;;;;;4909524;29;20652;-70
2021/09/18 03:23:26;;;;;;;1.30;0.85;;;16.00;81.30;;;;;;4914614;29;20756;-71
2021/09/18 03:25:52;;;;;;;1.40;0.90;;;16.00;81.30;;;;;;4917430;29;20036;-71
2021/09/18 03:28:18;;;;;;;4.10;1.13;;;16.00;81.20;;;;;;4913458;29;20027;-70
2021/09/18 03:30:43;;;;;;;2.05;1.20;;;16.00;81.00;;;;;;4908178;29;20083;-70
2021/09/18 03:33:09;;;;;;;2.67;1.10;;;16.00;81.40;;;;;;4911453;29;20024;-70
2021/09/18 03:35:35;;;;;;;1.38;1.10;;;16.00;81.90;;;;;;4911233;29;20040;-71
2021/09/18 03:38:00;;;;;;;1.98;1.10;;;16.00;80.80;;;;;;4910000;29;20246;-71
2021/09/18 03:40:26;;;;;;;0.88;0.80;;;15.90;81.00;;;;;;4913162;29;20142;-71
2021/09/18 03:42:52;;;;;;;1.95;1.08;;;15.90;81.50;;;;;;4909648;29;20115;-70
2021/09/18 03:45:17;;;;;;;1.88;1.10;;;15.90;81.90;;;;;;4912310;29;20035;-70
2021/09/18 03:47:43;;;;;;;4.53;1.10;;;15.90;82.10;;;;;;4909514;29;20040;-71
2021/09/18 03:50:09;;;;;;;3.45;0.98;;;16.00;81.70;;;;;;4911892;29;20039;-70
2021/09/18 03:52:36;;;;;;;1.52;0.88;;;15.90;81.90;;;;;;4912201;29;20027;-71
2021/09/18 03:55:03;;;;;;;3.40;0.90;;;15.90;82.20;;;;;;4912440;29;20159;-70
2021/09/18 03:57:29;;;;;;;2.22;1.20;;;15.90;82.40;;;;;;4913040;29;20076;-71
2021/09/18 03:59:54;;;;;;;2.03;1.15;;;15.90;82.20;;;;;;4914422;29;20143;-71
2021/09/18 04:02:20;;;;;;;2.47;1.40;;;15.90;82.20;;;;;;4911705;29;20115;-70
2021/09/18 04:04:46;;;;;;;2.38;1.10;;;15.90;82.20;;;;;;4916331;29;20032;-71
2021/09/18 04:07:12;;;;;;;1.10;1.00;;;15.90;82.40;;;;;;4913814;29;20071;-71
2021/09/18 04:09:37;;;;;;;1.35;1.20;;;15.80;83.20;;;;;;4914151;29;20090;-70
2021/09/18 04:12:03;;;;;;;2.08;1.08;;;15.90;82.80;;;;;;4915785;29;20090;-71
2021/09/18 04:14:29;;;;;;;2.50;1.10;;;15.90;82.10;;;;;;4908385;29;20043;-70
2021/09/18 04:16:55;;;;;;;1.42;0.80;;;15.90;81.80;;;;;;4914330;29;20032;-70
2021/09/18 04:19:20;;;;;;;2.20;1.27;;;15.90;81.90;;;;;;4916927;29;20050;-71
2021/09/18 04:21:46;;;;;;;1.83;1.17;;;15.90;82.10;;;;;;4872461;29;1090801;-71
2021/09/18 04:24:12;;;;;;;4.32;1.48;;;15.80;82.10;;;;;;4919576;29;20070;-70
2021/09/18 04:26:38;;;;;;;1.20;1.10;;;15.80;82.20;;;;;;4915288;29;20051;-71
2021/09/18 04:29:04;;;;;;;2.42;1.70;;;15.70;82.30;;;;;;4911467;29;20035;-71
2021/09/18 04:31:29;;;;;;;3.40;1.50;;;15.70;83.00;;;;;;4910581;29;20872;-71
2021/09/18 04:33:55;;;;;;;6.00;2.30;;;15.70;83.30;;;;;;4917149;29;20516;-71
2021/09/18 04:36:21;;;;;;;4.00;1.70;;;15.70;83.40;;;;;;4914606;29;20031;-71
2021/09/18 04:38:47;;;;;;;1.92;1.30;;;15.60;84.00;;;;;;4919797;29;20890;-71
2021/09/18 04:41:13;;;;;;;4.15;1.73;;;15.50;84.00;;;;;;4923868;29;20036;-71
2021/09/18 04:43:38;;;;;;;2.97;2.00;;;15.60;84.80;;;;;;4915637;29;20040;-71
2021/09/18 04:46:04;;;;;;;4.18;1.63;;;15.60;84.40;;;;;;4917484;29;20044;-71
2021/09/18 04:48:30;;;;;;;6.68;1.40;;;15.50;84.80;;;;;;4898438;29;20172;-70
2021/09/18 04:50:56;;;;;;;3.22;1.40;;;15.50;85.40;;;;;;4916762;29;20044;-71
2021/09/18 04:53:23;;;;;;;7.22;1.70;;;15.50;85.40;;;;;;4919095;29;20061;-70
2021/09/18 04:55:48;;;;;;;2.45;1.50;;;15.50;85.60;;;;;;4920848;29;20027;-70
2021/09/18 04:58:14;;;;;;;3.25;1.40;;;15.60;85.50;;;;;;4920458;29;20034;-70
2021/09/18 05:00:40;;;;;;;3.00;2.00;;;15.60;85.60;;;;;;4922429;29;20032;-70
2021/09/18 05:03:07;;;;;;;3.67;2.72;;;15.60;85.50;;;;;;4913289;29;20039;-70
2021/09/18 05:05:33;;;;;;;4.75;2.70;;;15.60;85.60;;;;;;4921032;29;20050;-70
2021/09/18 05:07:58;;;;;;;6.20;3.08;;;15.60;85.90;;;;;;4923902;29;20077;-71
2021/09/18 05:10:24;;;;;;;5.45;2.95;;;15.50;86.30;;;;;;4898123;29;20038;-71
2021/09/18 05:12:50;;;;;;;6.30;3.05;;;15.50;86.70;;;;;;4916315;29;20032;-70
2021/09/18 05:15:16;;;;;;;4.88;3.33;;;15.50;87.20;;;;;;4913661;29;20036;-71
2021/09/18 05:17:41;;;;;;;3.72;2.75;;;15.50;87.40;;;;;;4919585;29;20046;-71
2021/09/18 05:20:08;;;;;;;6.07;3.03;;;15.50;87.80;;;;;;4914530;29;20040;-72
2021/09/18 05:22:34;;;;;;;4.97;3.25;;;15.50;87.60;;;;;;4915353;29;20052;-71
2021/09/18 05:24:59;;;;;;;4.20;2.92;;;15.50;87.90;;;;;;4914589;29;20047;-72
2021/09/18 05:27:25;;;;;;;8.10;3.42;;;15.50;88.00;;;;;;4917556;29;20035;-71
2021/09/18 05:29:51;;;;;;;5.80;3.13;;;15.50;88.20;;;;;;4912632;29;20534;-71
2021/09/18 05:32:16;;;;;;;5.57;3.45;;;15.50;88.50;;;;;;4922660;29;20063;-71
2021/09/18 05:34:42;;;;;;;6.85;3.22;;;15.40;88.80;;;;;;4915119;29;20079;-71
2021/09/18 05:37:08;;;;;;;6.22;4.88;;;15.50;89.30;;;;;;4917910;29;20038;-71
2021/09/18 05:39:34;;;;;;;3.72;3.33;;;15.50;89.50;;;;;;4923189;29;20028;-71
2021/09/18 05:42:00;;;;;;;4.07;2.97;;;15.50;89.40;;;;;;4916600;29;20036;-72
2021/09/18 05:44:25;;;;;;;6.93;3.30;;;15.50;90.00;;;;;;4916575;29;20589;-72
2021/09/18 05:46:51;;;;;;;4.25;2.88;;;15.50;89.50;;;;;;4913266;29;20123;-67
2021/09/18 05:49:17;;;;;;;3.47;2.75;;;15.50;89.20;;;;;;4917163;29;20043;-69
2021/09/18 05:51:42;;;;;;;4.75;2.95;;;15.50;89.70;;;;;;4915828;29;20032;-71
2021/09/18 05:54:08;;;;;;;4.13;3.25;;;15.50;89.80;;;;;;4915572;29;20590;-70
2021/09/18 05:56:34;;;;;;;3.60;2.90;;;15.50;90.00;;;;;;4914422;29;20400;-70
2021/09/18 05:59:01;;;;;;;4.45;3.30;;;15.50;90.00;;;;;;4916844;29;20036;-71
2021/09/18 06:01:27;;;;;;;18.42;12.93;;;15.50;90.00;;;;;;4914826;29;20047;-71
2021/09/18 06:03:52;;;;;;;16.63;13.35;;;15.50;90.20;;;;;;4932956;29;20797;-71
2021/09/18 06:06:18;;;;;;;5.85;4.70;;;15.50;90.20;;;;;;4920898;29;20040;-71
2021/09/18 06:08:44;;;;;;;4.50;3.63;;;15.60;90.20;;;;;;4914093;29;20043;-71
2021/09/18 06:11:10;;;;;;;3.90;3.40;;;15.60;90.10;;;;;;4917832;29;20083;-71
2021/09/18 06:13:36;;;;;;;6.72;4.75;;;15.60;90.10;;;;;;4913273;29;20043;-71
2021/09/18 06:16:01;;;;;;;5.32;4.82;;;15.60;90.10;;;;;;4922274;29;20047;-71
2021/09/18 06:18:27;;;;;;;4.78;3.92;;;15.70;90.10;;;;;;4915780;29;20047;-72
2021/09/18 06:20:53;;;;;;;8.27;7.47;;;15.70;90.20;;;;;;4919363;29;20027;-66
2021/09/18 06:23:20;;;;;;;25.65;22.67;;;15.70;90.10;;;;;;4912971;29;20904;-71
2021/09/18 06:25:46;;;;;;;14.63;13.00;;;15.70;90.20;;;;;;4916382;29;20040;-69
2021/09/18 06:28:12;;;;;;;17.95;14.38;;;15.70;90.00;;;;;;4921038;29;20472;-69
2021/09/18 06:30:38;;;;;;;8.55;7.65;;;15.70;90.10;;;;;;4921002;29;20031;-69
2021/09/18 06:33:05;;;;;;;4.53;3.90;;;15.70;90.10;;;;;;4916987;29;20548;-69
2021/09/18 06:35:30;;;;;;;3.38;3.00;;;15.70;90.10;;;;;;4915182;29;20039;-70
2021/09/18 06:37:56;;;;;;;3.33;2.58;;;15.70;90.30;;;;;;4916291;29;20836;-70
2021/09/18 06:40:22;;;;;;;3.60;2.63;;;15.70;90.40;;;;;;4915362;29;20039;-71
2021/09/18 06:42:48;;;;;;;2.92;2.10;;;15.80;90.40;;;;;;4916298;29;20396;-71
2021/09/18 06:45:15;;;;;;;2.78;2.13;;;15.80;90.50;;;;;;4910813;29;20127;-70
2021/09/18 06:47:40;;;;;;;4.63;2.40;;;15.90;90.40;;;;;;4914797;29;20038;-71
2021/09/18 06:50:08;;;;;;;3.28;2.40;;;15.90;90.20;;;;;;4922080;29;20047;-70
2021/09/18 06:52:34;;;;;;;5.40;2.30;;;15.90;90.10;;;;;;4912033;29;20488;-67
2021/09/18 06:55:00;;;;;;;3.13;2.40;;;16.00;90.30;;;;;;4916932;29;20036;-68
2021/09/18 06:57:25;;;;;;;3.20;2.40;;;16.00;90.20;;;;;;4917152;29;20036;-67
2021/09/18 06:59:51;;;;;;;2.78;2.30;;;16.00;90.30;;;;;;4913841;29;20074;-71
2021/09/18 07:02:20;;;;;;;4.10;2.33;;;16.00;90.30;;;;;;4915923;29;20079;-71
2021/09/18 07:04:46;;;;;;;3.50;2.67;;;16.10;90.20;;;;;;4913098;29;20521;-71
2021/09/18 07:07:11;;;;;;;3.88;2.67;;;16.10;90.30;;;;;;4915209;29;20043;-70
2021/09/18 07:09:37;;;;;;;4.93;3.28;;;16.10;90.30;;;;;;4913938;29;20131;-70
2021/09/18 07:12:03;;;;;;;3.83;2.78;;;16.20;90.30;;;;;;4917119;29;20046;-71
2021/09/18 07:14:29;;;;;;;3.28;2.97;;;16.30;90.20;;;;;;4913066;29;20063;-71
2021/09/18 07:16:55;;;;;;;3.53;3.05;;;16.40;90.10;;;;;;4911827;29;20481;-71
2021/09/18 07:19:20;;;;;;;4.78;3.28;;;16.50;90.00;;;;;;4914304;29;20035;-71
2021/09/18 07:21:46;;;;;;;3.38;2.67;;;16.40;90.20;;;;;;4908124;29;20036;-70
2021/09/18 07:24:12;;;;;;;4.95;3.17;;;16.50;90.20;;;;;;4913341;29;20736;-71
2021/09/18 07:26:38;;;;;;;3.75;2.88;;;16.60;90.10;;;;;;4917962;29;20028;-70
2021/09/18 07:29:04;;;;;;;3.35;3.00;;;16.60;90.00;;;;;;4914506;29;20034;-64
2021/09/18 07:31:30;;;;;;;4.18;2.72;;;16.60;90.00;;;;;;4910741;29;20127;-70
2021/09/18 07:33:56;;;;;;;3.90;2.78;;;16.70;89.90;;;;;;4916322;29;20051;-69
2021/09/18 07:36:22;;;;;;;4.28;3.28;;;16.70;90.00;;;;;;4911901;29;20028;-69
2021/09/18 07:38:48;;;;;;;3.45;2.50;;;16.80;89.90;;;;;;4913690;29;20103;-69
2021/09/18 07:41:15;;;;;;;4.55;3.30;;;16.80;89.50;;;;;;4917503;29;20065;-68
2021/09/18 07:43:42;;;;;;;3.35;2.70;;;16.80;89.90;;;;;;4914905;29;20049;-68
2021/09/18 07:46:08;;;;;;;4.30;2.72;;;16.90;89.80;;;;;;4918184;29;20036;-68
2021/09/18 07:48:34;;;;;;;3.42;2.88;;;17.00;89.70;;;;;;4910957;29;20409;-69
2021/09/18 07:51:00;;;;;;;5.00;3.08;;;17.00;89.50;;;;;;4919972;29;20047;-68
2021/09/18 07:53:26;;;;;;;2.80;2.47;;;17.10;89.80;;;;;;4912544;29;20293;-69
2021/09/18 07:55:51;;;;;;;2.85;2.55;;;17.10;89.90;;;;;;4919524;29;20551;-68
2021/09/18 07:58:17;;;;;;;3.33;2.55;;;17.20;89.80;;;;;;4918310;29;20053;-69
2021/09/18 08:00:44;;;;;;;4.57;2.63;;;17.20;89.50;;;;;;4916008;29;20123;-68
2021/09/18 08:03:10;;;;;;;2.75;2.55;;;17.30;89.50;;;;;;4914364;29;20068;-66
2021/09/18 08:05:36;;;;;;;2.47;2.28;;;17.30;89.60;;;;;;4912430;29;20043;-68
2021/09/18 08:08:02;;;;;;;4.63;2.88;;;17.40;89.60;;;;;;4913767;29;20086;-67
2021/09/18 08:10:29;;;;;;;3.47;2.50;;;17.40;89.30;;;;;;4913227;29;20036;-68
2021/09/18 08:12:55;;;;;;;4.10;2.70;;;17.40;89.30;;;;;;4915336;29;20032;-68
2021/09/18 08:15:23;;;;;;;4.00;3.03;;;17.50;89.20;;;;;;4910907;29;20503;-68
2021/09/18 08:17:48;;;;;;;2.72;2.53;;;17.50;89.30;;;;;;4916942;29;20039;-68
2021/09/18 08:20:16;;;;;;;3.53;2.47;;;17.50;89.60;;;;;;4913412;29;20114;-68
2021/09/18 08:22:43;;;;;;;3.55;2.88;;;17.60;89.80;;;;;;4913841;29;20060;-68
2021/09/18 08:25:09;;;;;;;2.70;2.50;;;17.70;89.60;;;;;;4913948;29;20044;-66
2021/09/18 08:27:36;;;;;;;3.38;2.75;;;17.70;89.50;;;;;;4911732;29;20055;-66
2021/09/18 08:30:02;;;;;;;2.63;2.42;;;17.70;89.40;;;;;;4914082;29;20040;-68
2021/09/18 08:32:28;;;;;;;2.88;2.58;;;17.80;89.30;;;;;;4916797;29;20024;-66
2021/09/18 08:34:54;;;;;;;3.00;2.63;;;17.80;88.90;;;;;;4911853;29;20366;-66
2021/09/18 08:37:20;;;;;;;6.07;2.80;;;17.80;89.20;;;;;;4913755;29;20046;-67
2021/09/18 08:39:45;;;;;;;4.40;2.53;;;17.90;89.30;;;;;;4910081;29;20036;-67
2021/09/18 08:42:13;;;;;;;3.67;2.50;;;17.90;89.20;;;;;;4913389;29;20092;-70
2021/09/18 08:44:39;;;;;;;2.95;2.45;;;18.00;89.00;;;;;;4911642;29;20074;-67
2021/09/18 08:47:05;;;;;;;3.72;2.40;;;18.10;89.10;;;;;;4913586;29;20115;-68
2021/09/18 08:49:32;;;;;;;3.75;2.38;;;18.10;88.90;;;;;;4915579;29;20046;-67
2021/09/18 08:52:01;;;;;;;3.50;2.13;;;18.30;88.50;;;;;;4911730;29;20047;-67
2021/09/18 08:54:27;;;;;;;2.08;1.70;;;18.30;88.20;;;;;;4913318;29;20102;-67
2021/09/18 08:56:53;;;;;;;3.20;2.20;;;18.30;88.50;;;;;;4908357;29;20028;-67
2021/09/18 08:59:18;;;;;;;1.80;1.48;;;18.40;88.60;;;;;;4916863;29;20472;-68
2021/09/18 09:01:44;;;;;;;1.63;1.42;;;18.60;87.90;;;;;;4913819;29;20040;-68
2021/09/18 09:04:10;;;;;;;1.52;1.23;;;18.70;87.20;;;;;;4917451;29;20464;-67
2021/09/18 09:06:43;;;;;;;1.10;1.00;;;18.80;86.80;;;;;;4910501;29;20680;-68
2021/09/18 09:09:10;;;;;;;1.30;1.20;;;19.00;86.60;;;;;;4914334;29;20043;-68
2021/09/18 09:11:36;;;;;;;1.58;0.90;;;19.20;86.10;;;;;;4911630;29;20043;-68
2021/09/18 09:14:08;;;;;;;1.58;0.77;;;19.40;85.80;;;;;;4911643;29;20024;-68
2021/09/18 09:16:35;;;;;;;0.88;0.80;;;19.50;85.00;;;;;;4910591;29;20036;-68
2021/09/18 09:19:15;;;;;;;2.33;1.40;;;19.70;83.20;;;;;;4912432;29;20035;-68
2021/09/18 09:21:47;;;;;;;0.50;0.50;;;19.80;83.60;;;;;;4911177;29;20371;-67
2021/09/18 09:24:15;;;;;;;1.02;0.50;;;19.90;81.50;;;;;;4914789;29;20499;-67
2021/09/18 09:27:02;;;;;;;1.02;0.70;;;20.00;80.70;;;;;;4914973;29;20087;-68
2021/09/18 09:29:54;;;;;;;1.13;0.47;;;20.10;80.60;;;;;;4914828;29;20059;-68
2021/09/18 09:32:28;;;;;;;0.40;0.40;;;20.20;79.30;;;;;;4911479;29;20035;-67
2021/09/18 09:34:55;;;;;;;1.48;0.50;;;20.30;79.90;;;;;;4920858;29;20039;-65
2021/09/18 09:37:21;;;;;;;2.28;0.50;;;20.40;79.80;;;;;;4929800;29;20162;-67
2021/09/18 09:39:58;;;;;;;1.00;0.38;;;20.40;79.00;;;;;;4914713;29;20477;-67
2021/09/18 09:42:48;;;;;;;3.88;2.28;;;20.40;78.20;;;;;;4912861;29;20624;-67
2021/09/18 09:45:18;;;;;;;1.83;0.50;;;20.40;78.30;;;;;;4912267;29;20048;-68
2021/09/18 09:47:45;;;;;;;2.05;1.45;;;20.30;78.10;;;;;;4916600;29;20048;-68
2021/09/18 09:50:12;;;;;;;1.70;1.20;;;20.30;78.40;;;;;;4919365;29;20043;-67
2021/09/18 09:52:40;;;;;;;1.63;1.20;;;20.30;78.90;;;;;;4915955;29;20096;-67
2021/09/18 09:55:14;;;;;;;1.70;0.60;;;20.20;79.20;;;;;;4916129;29;20043;-67
2021/09/18 09:57:41;;;;;;;2.75;0.93;;;20.20;79.10;;;;;;4912256;29;20036;-67
2021/09/18 10:00:13;;;;;;;1.50;0.55;;;20.20;79.60;;;;;;4917783;29;20040;-67
2021/09/18 10:02:41;;;;;;;1.05;0.50;;;20.30;80.30;;;;;;4914925;29;20063;-67
2021/09/18 10:05:09;;;;;;;1.10;0.80;;;20.30;80.20;;;;;;4920829;29;20048;-67
2021/09/18 10:07:36;;;;;;;2.50;0.80;;;20.20;80.40;;;;;;4913181;29;20051;-67
2021/09/18 10:10:03;;;;;;;2.50;0.70;;;20.10;80.80;;;;;;4913904;29;20036;-67
2021/09/18 10:12:29;;;;;;;1.50;0.85;;;19.90;82.20;;;;;;4911436;29;20043;-67
2021/09/18 10:14:56;;;;;;;2.03;0.80;;;19.70;84.70;;;;;;4913780;29;20040;-66
2021/09/18 10:17:23;;;;;;;1.95;0.40;;;19.50;85.10;;;;;;4916064;29;20952;-68
2021/09/18 10:25:12;;;;;;;0.98;0.57;;;19.30;86.20;;;;;;4914968;29;20036;-67
2021/09/18 10:27:38;;;;;;;1.50;0.60;;;19.30;86.60;;;;;;4898584;29;20048;-67
2021/09/18 10:30:04;;;;;;;1.00;0.63;;;19.30;87.20;;;;;;4913781;29;20044;-66
2021/09/18 10:32:45;;;;;;;0.60;0.50;;;19.40;87.10;;;;;;4915163;29;20034;-67
2021/09/18 10:35:14;;;;;;;0.82;0.28;;;19.50;87.60;;;;;;4912245;29;20523;-67
2021/09/18 10:37:40;;;;;;;1.35;0.40;;;19.50;86.20;;;;;;4916344;29;20082;-67
2021/09/18 10:40:10;;;;;;;0.63;0.30;;;19.50;86.00;;;;;;4912436;29;20032;-67
2021/09/18 10:42:39;;;;;;;1.15;0.30;;;19.50;85.90;;;;;;4912415;29;20043;-64
2021/09/18 10:45:07;;;;;;;0.50;0.30;;;19.50;85.20;;;;;;4912795;29;20956;-64
2021/09/18 10:47:42;;;;;;;1.05;0.40;;;19.50;84.00;;;;;;4915416;29;20484;-64
2021/09/18 10:50:26;;;;;;;1.00;0.40;;;19.40;86.30;;;;;;4910696;29;20044;-67
2021/09/18 10:53:15;;;;;;;0.90;0.20;;;19.50;88.40;;;;;;4913758;29;20035;-68
2021/09/18 10:55:53;;;;;;;1.52;0.45;;;19.60;87.70;;;;;;4915168;29;20638;-67
2021/09/18 10:58:19;;;;;;;0.75;0.30;;;19.80;87.80;;;;;;4913815;29;20043;-67
2021/09/18 11:00:50;;;;;;;1.13;0.43;;;20.00;85.40;;;;;;4914580;29;20119;-65
2021/09/18 11:03:49;;;;;;;0.43;0.22;;;20.20;83.80;;;;;;4915052;29;20044;-66
2021/09/18 11:06:35;;;;;;;0.85;0.20;;;20.30;79.50;;;;;;4906756;29;20047;-68
2021/09/18 11:09:01;;;;;;;0.40;0.20;;;20.40;81.50;;;;;;4909937;29;20075;-70
2021/09/18 11:11:27;;;;;;;0.60;0.30;;;20.20;78.10;;;;;;4912467;29;20035;-68
2021/09/18 11:13:56;;;;;;;0.73;0.30;;;20.00;78.80;;;;;;4913481;29;20556;-69
2021/09/18 11:16:26;;;;;;;0.43;0.28;;;19.80;79.10;;;;;;4914590;29;20152;-69
2021/09/18 11:18:57;;;;;;;2.10;1.00;;;19.80;80.30;;;;;;4911135;29;20126;-69
2021/09/18 11:21:31;;;;;;;2.47;0.30;;;19.70;80.20;;;;;;4913907;29;20059;-69
2021/09/18 11:24:20;;;;;;;0.15;0.10;;;19.70;80.50;;;;;;4909658;29;20401;-70
2021/09/18 11:26:47;;;;;;;1.33;0.40;;;19.70;80.10;;;;;;4926744;29;20643;-69
2021/09/18 11:29:20;;;;;;;0.03;0.03;;;19.80;79.90;;;;;;4912064;29;20500;-66
2021/09/18 11:31:54;;;;;;;0.20;0.20;;;19.80;79.30;;;;;;4916472;29;20741;-68
2021/09/18 11:34:29;;;;;;;0.38;0.30;;;19.90;80.30;;;;;;4911800;29;20043;-66
2021/09/18 11:36:58;;;;;;;0.90;0.50;;;20.20;77.50;;;;;;4914351;29;20063;-70
2021/09/18 11:39:39;;;;;;;0.43;0.30;;;20.30;78.10;;;;;;4926503;29;20504;-70
2021/09/18 11:42:18;;;;;;;0.25;0.15;;;20.40;78.30;;;;;;4911819;29;20041;-69
2021/09/18 11:44:48;;;;;;;0.52;0.35;;;20.30;78.70;;;;;;4913586;29;20505;-70
2021/09/18 11:47:20;;;;;;;0.88;0.30;;;20.20;79.20;;;;;;4914092;29;20059;-69
2021/09/18 11:49:46;;;;;;;1.42;0.25;;;20.20;78.50;;;;;;4911293;29;20036;-67
2021/09/18 11:52:11;;;;;;;0.70;0.32;;;20.00;77.50;;;;;;4911075;29;20873;-67
2021/09/18 11:54:37;;;;;;;1.70;0.40;;;20.00;78.30;;;;;;4917348;29;20111;-69
2021/09/18 11:57:15;;;;;;;1.23;0.50;;;20.00;77.90;;;;;;4912308;29;20031;-68
2021/09/18 11:59:41;;;;;;;0.30;0.30;;;20.10;77.50;;;;;;4910231;29;20134;-67
2021/09/18 12:02:06;;;;;;;0.30;0.30;;;20.10;76.40;;;;;;4912287;29;20050;-65
2021/09/18 12:04:40;;;;;;;0.98;0.43;;;20.20;76.00;;;;;;4914447;29;20913;-69
2021/09/18 12:07:07;;;;;;;1.30;0.45;;;20.30;76.20;;;;;;4916717;29;20082;-68
2021/09/18 12:09:34;;;;;;;1.40;1.30;;;20.30;76.00;;;;;;4910108;29;20047;-64
2021/09/18 12:11:59;;;;;;;1.65;0.98;;;20.30;76.80;;;;;;4909879;29;20032;-67
2021/09/18 12:14:33;;;;;;;1.02;0.50;;;20.40;76.40;;;;;;4910366;29;20036;-71
2021/09/18 12:17:12;;;;;;;0.75;0.50;;;20.60;75.10;;;;;;4912059;29;20040;-66
2021/09/18 12:19:38;;;;;;;0.57;0.40;;;20.60;75.80;;;;;;4912924;29;20135;-68
2021/09/18 12:22:04;;;;;;;0.85;0.47;;;20.70;74.00;;;;;;4912258;29;20036;-70
2021/09/18 12:24:30;;;;;;;0.93;0.50;;;20.70;74.60;;;;;;4916306;29;20032;-69
2021/09/18 12:26:56;;;;;;;1.23;0.82;;;20.80;74.70;;;;;;4901002;29;20043;-69
2021/09/18 12:29:21;;;;;;;1.00;0.50;;;20.80;73.90;;;;;;4911696;29;20143;-70
2021/09/18 12:31:48;;;;;;;1.08;0.50;;;20.80;69.80;;;;;;4910534;29;20047;-70
2021/09/18 12:34:16;;;;;;;1.20;0.50;;;20.80;71.30;;;;;;4912125;29;20111;-70
2021/09/18 12:36:42;;;;;;;1.60;0.65;;;20.80;71.30;;;;;;4914650;29;20036;-66
2021/09/18 12:39:09;;;;;;;0.93;0.60;;;20.80;72.20;;;;;;4913289;29;20058;-69
2021/09/18 12:41:40;;;;;;;1.02;0.50;;;20.90;72.10;;;;;;4914402;29;20035;-69
2021/09/18 12:44:12;;;;;;;4.32;0.68;;;20.90;71.60;;;;;;4913477;29;20043;-70
2021/09/18 12:46:40;;;;;;;0.95;0.57;;;21.00;72.10;;;;;;4911191;29;20047;-70
2021/09/18 12:49:07;;;;;;;1.63;0.52;;;21.00;70.30;;;;;;4909003;29;20544;-69
2021/09/18 12:51:36;;;;;;;1.95;0.70;;;20.80;69.80;;;;;;4911340;29;20067;-70